createdAt,value
2022-08-31T00:00:06.234Z,11.27
2022-08-31T00:02:31.075Z,9.88
2022-08-31T00:04:33.776Z,9.02
2022-08-31T00:06:37.407Z,12.20
2022-08-31T00:08:39.966Z,9.43
2022-08-31T00:10:46.132Z,16.25
2022-08-31T00:12:49.955Z,7.40
2022-08-31T00:14:52.721Z,12.40
2022-08-31T00:16:55.621Z,10.82
2022-08-31T00:18:59.590Z,7.70
2022-08-31T00:21:02.413Z,9.55
2022-08-31T00:23:05.865Z,7.00
2022-08-31T00:25:09.480Z,10.30
2022-08-31T00:27:15.227Z,10.27
2022-08-31T00:29:17.837Z,7.05
2022-08-31T00:31:20.665Z,11.00
2022-08-31T00:33:24.336Z,11.13
2022-08-31T00:35:28.696Z,11.20
2022-08-31T00:37:31.363Z,8.02
2022-08-31T00:39:33.955Z,9.68
2022-08-31T00:41:38.615Z,10.60
2022-08-31T00:43:47.479Z,13.27
2022-08-31T00:45:50.275Z,11.98
2022-08-31T00:47:53.751Z,11.05
2022-08-31T00:49:56.433Z,12.77
2022-08-31T00:52:09.712Z,9.70
2022-08-31T00:54:15.668Z,7.95
2022-08-31T00:56:19.131Z,14.65
2022-08-31T00:58:22.392Z,15.25
2022-08-31T01:00:29.771Z,10.30
2022-08-31T01:02:32.424Z,12.77
2022-08-31T01:04:35.677Z,12.10
2022-08-31T01:06:38.448Z,16.25
2022-08-31T01:08:43.034Z,15.85
2022-08-31T01:10:47.059Z,11.48
2022-08-31T01:12:53.249Z,15.98
2022-08-31T01:14:56.623Z,14.65
2022-08-31T01:16:59.332Z,12.70
2022-08-31T01:19:04.484Z,12.50
2022-08-31T01:21:22.335Z,12.55
2022-08-31T01:23:29.350Z,11.77
2022-08-31T01:25:33.896Z,13.48
2022-08-31T01:27:38.036Z,16.77
2022-08-31T01:29:40.697Z,12.18
2022-08-31T01:31:45.254Z,10.85
2022-08-31T01:33:48.232Z,11.85
2022-08-31T01:35:50.813Z,12.05
2022-08-31T01:37:54.509Z,8.95
2022-08-31T01:39:59.147Z,9.23
2022-08-31T01:42:01.801Z,10.20
2022-08-31T01:44:04.445Z,14.93
2022-08-31T01:46:10.491Z,10.65
2022-08-31T01:48:13.799Z,8.68
2022-08-31T01:50:16.536Z,12.63
2022-08-31T01:52:19.251Z,18.45
2022-08-31T01:54:24.979Z,10.30
2022-08-31T01:56:31.960Z,18.20
2022-08-31T01:58:34.550Z,15.68
2022-08-31T02:00:37.801Z,13.63
2022-08-31T02:02:41.930Z,10.43
2022-08-31T02:04:45.792Z,10.45
2022-08-31T02:06:50.729Z,15.20
2022-08-31T02:08:53.503Z,12.48
2022-08-31T02:10:56.045Z,19.40
2022-08-31T02:13:00.071Z,19.42
2022-08-31T02:15:02.744Z,23.00
2022-08-31T02:17:05.557Z,22.80
2022-08-31T02:19:08.226Z,18.23
2022-08-31T02:21:12.465Z,13.98
2022-08-31T02:23:15.280Z,14.80
2022-08-31T02:25:18.706Z,14.10
2022-08-31T02:27:21.299Z,15.70
2022-08-31T02:29:25.277Z,19.40
2022-08-31T02:31:28.035Z,21.13
2022-08-31T02:33:30.705Z,15.82
2022-08-31T02:35:34.107Z,11.75
2022-08-31T02:37:39.711Z,14.48
2022-08-31T02:39:42.382Z,20.88
2022-08-31T02:41:45.091Z,18.02
2022-08-31T02:43:47.686Z,15.55
2022-08-31T02:45:53.666Z,16.60
2022-08-31T02:47:56.369Z,15.57
2022-08-31T02:49:59.414Z,16.83
2022-08-31T02:52:02.041Z,13.85
2022-08-31T02:54:04.709Z,17.17
2022-08-31T02:56:08.851Z,13.18
2022-08-31T02:58:13.228Z,14.02
2022-08-31T03:00:16.254Z,16.83
2022-08-31T03:02:20.415Z,11.98
2022-08-31T03:04:23.019Z,13.45
2022-08-31T03:06:25.637Z,14.52
2022-08-31T03:08:28.320Z,12.48
2022-08-31T03:10:33.800Z,13.75
2022-08-31T03:12:36.951Z,13.85
2022-08-31T03:14:39.567Z,11.05
2022-08-31T03:16:42.694Z,14.68
2022-08-31T03:18:48.715Z,13.90
2022-08-31T03:20:54.450Z,14.50
2022-08-31T03:22:57.330Z,13.13
2022-08-31T03:25:02.281Z,10.50
2022-08-31T03:27:05.084Z,11.82
2022-08-31T03:29:07.756Z,14.32
2022-08-31T03:31:11.003Z,16.38
2022-08-31T03:33:14.466Z,13.32
2022-08-31T03:35:19.183Z,12.20
2022-08-31T03:37:21.959Z,15.68
2022-08-31T03:39:24.561Z,15.60
2022-08-31T03:41:27.560Z,14.27
2022-08-31T03:43:30.228Z,13.50
2022-08-31T03:45:33.476Z,16.75
2022-08-31T03:47:37.122Z,15.20
2022-08-31T03:49:48.685Z,15.30
2022-08-31T03:51:52.754Z,14.35
2022-08-31T03:53:55.549Z,14.85
2022-08-31T03:56:02.029Z,12.25
2022-08-31T03:58:04.851Z,15.18
2022-08-31T04:00:13.217Z,18.40
2022-08-31T04:02:15.857Z,13.25
2022-08-31T04:04:18.511Z,12.98
2022-08-31T04:06:21.222Z,15.18
2022-08-31T04:08:25.756Z,15.18
2022-08-31T04:10:28.417Z,14.80
2022-08-31T04:12:31.058Z,16.45
2022-08-31T04:14:33.652Z,16.02
2022-08-31T04:16:37.308Z,13.90
2022-08-31T04:18:40.468Z,13.60
2022-08-31T04:20:43.060Z,14.30
2022-08-31T04:22:45.682Z,13.00
2022-08-31T04:24:49.626Z,14.02
2022-08-31T04:26:53.604Z,17.45
2022-08-31T04:28:57.355Z,12.60
2022-08-31T04:30:59.968Z,14.15
2022-08-31T04:33:04.719Z,11.27
2022-08-31T04:35:08.457Z,15.35
2022-08-31T04:37:14.384Z,12.35
2022-08-31T04:39:16.966Z,11.63
2022-08-31T04:41:22.768Z,14.00
2022-08-31T04:43:25.358Z,14.20
2022-08-31T04:45:28.212Z,15.70
2022-08-31T04:47:31.841Z,14.40
2022-08-31T04:49:34.522Z,13.43
2022-08-31T04:51:39.306Z,13.90
2022-08-31T04:53:42.910Z,13.93
2022-08-31T04:55:45.453Z,17.67
2022-08-31T04:57:49.365Z,15.60
2022-08-31T04:59:53.485Z,17.27
2022-08-31T05:01:56.309Z,14.85
2022-08-31T05:03:59.435Z,15.77
2022-08-31T05:06:02.034Z,13.40
2022-08-31T05:08:05.198Z,14.07
2022-08-31T05:10:08.402Z,12.18
2022-08-31T05:12:11.005Z,12.82
2022-08-31T05:14:15.017Z,15.27
2022-08-31T05:16:18.647Z,14.18
2022-08-31T05:18:21.263Z,16.23
2022-08-31T05:20:23.899Z,14.23
2022-08-31T05:22:26.521Z,15.20
2022-08-31T05:24:30.201Z,12.45
2022-08-31T05:26:35.853Z,16.02
2022-08-31T05:28:40.563Z,15.48
2022-08-31T05:30:45.871Z,20.55
2022-08-31T05:32:48.556Z,15.32
2022-08-31T05:34:52.077Z,15.10
2022-08-31T05:36:57.113Z,12.98
2022-08-31T05:39:01.473Z,10.82
2022-08-31T05:41:06.071Z,11.55
2022-08-31T05:43:08.639Z,12.55
2022-08-31T05:45:11.601Z,10.23
2022-08-31T05:47:15.554Z,12.38
2022-08-31T05:49:18.108Z,13.80
2022-08-31T05:51:20.858Z,9.98
2022-08-31T05:53:23.427Z,9.45
2022-08-31T05:55:25.999Z,12.45
2022-08-31T05:57:28.645Z,12.45
2022-08-31T05:59:32.072Z,11.20
2022-08-31T06:01:37.658Z,9.65
2022-08-31T06:03:42.064Z,8.60
2022-08-31T06:05:45.746Z,9.98
2022-08-31T06:07:51.376Z,9.73
2022-08-31T06:09:53.980Z,10.32
2022-08-31T06:11:58.886Z,11.40
2022-08-31T06:14:05.582Z,10.57
2022-08-31T06:16:09.760Z,10.20
2022-08-31T06:18:12.541Z,10.65
2022-08-31T06:20:18.021Z,9.88
2022-08-31T06:22:20.870Z,12.45
2022-08-31T06:24:23.435Z,15.65
2022-08-31T06:26:28.914Z,12.07
2022-08-31T06:28:32.636Z,6.72
2022-08-31T06:30:47.806Z,17.05
2022-08-31T06:35:01.951Z,11.98
2022-08-31T06:37:06.782Z,9.82
2022-08-31T06:39:12.361Z,11.13
2022-08-31T06:41:16.954Z,8.07
2022-08-31T06:43:20.014Z,10.60
2022-08-31T06:45:22.741Z,15.65
2022-08-31T06:47:26.079Z,11.20
2022-08-31T06:49:28.717Z,9.00
2022-08-31T06:51:36.414Z,13.48
2022-08-31T06:53:42.451Z,14.60
2022-08-31T06:55:45.966Z,9.20
2022-08-31T06:57:48.639Z,14.43
2022-08-31T06:59:53.639Z,8.50
2022-08-31T07:01:56.329Z,12.10
2022-08-31T07:04:01.072Z,11.73
2022-08-31T07:06:09.945Z,10.77
2022-08-31T07:08:12.532Z,9.40
2022-08-31T07:10:18.759Z,12.50
2022-08-31T07:12:22.152Z,9.75
2022-08-31T07:14:26.870Z,11.80
2022-08-31T07:16:31.299Z,10.43
2022-08-31T07:18:34.120Z,10.95
2022-08-31T07:20:36.731Z,13.18
2022-08-31T07:22:39.295Z,10.52
2022-08-31T07:24:41.871Z,10.30
2022-08-31T07:26:49.825Z,9.30
2022-08-31T07:28:53.574Z,9.38
2022-08-31T07:30:56.348Z,11.02
2022-08-31T07:32:58.996Z,10.45
2022-08-31T07:35:01.581Z,12.48
2022-08-31T07:37:24.180Z,13.13
2022-08-31T07:39:45.145Z,12.00
2022-08-31T07:42:06.753Z,11.02
2022-08-31T07:44:10.995Z,10.35
2022-08-31T07:46:14.113Z,12.55
2022-08-31T07:48:17.290Z,13.88
2022-08-31T07:50:21.199Z,9.35
2022-08-31T07:52:26.459Z,10.27
2022-08-31T07:54:29.178Z,14.60
2022-08-31T07:56:34.802Z,11.65
2022-08-31T07:58:40.198Z,10.30
2022-08-31T08:00:43.265Z,11.10
2022-08-31T08:02:52.894Z,14.40
2022-08-31T08:04:55.976Z,9.85
2022-08-31T08:07:05.836Z,10.80
2022-08-31T08:09:24.596Z,10.68
2022-08-31T08:11:27.940Z,11.20
2022-08-31T08:13:31.941Z,9.90
2022-08-31T08:15:37.348Z,9.48
2022-08-31T08:17:43.071Z,11.60
2022-08-31T08:19:45.661Z,11.05
2022-08-31T08:21:48.874Z,10.27
2022-08-31T08:23:54.009Z,11.00
2022-08-31T08:26:01.154Z,12.32
2022-08-31T08:28:22.601Z,16.38
2022-08-31T08:30:26.875Z,13.13
2022-08-31T08:32:31.771Z,11.65
2022-08-31T08:34:34.389Z,9.30
2022-08-31T08:36:40.323Z,9.23
2022-08-31T08:38:43.953Z,10.82
2022-08-31T08:40:47.431Z,11.10
2022-08-31T08:42:50.241Z,12.15
2022-08-31T08:44:52.874Z,12.90
2022-08-31T08:46:58.433Z,10.20
2022-08-31T08:49:10.112Z,11.18
2022-08-31T08:51:16.609Z,11.38
2022-08-31T08:53:23.752Z,15.32
2022-08-31T08:55:34.943Z,14.00
2022-08-31T08:57:41.220Z,11.60
2022-08-31T08:59:45.247Z,15.68
2022-08-31T09:01:50.540Z,12.13
2022-08-31T09:04:01.139Z,9.00
2022-08-31T09:06:14.267Z,8.70
2022-08-31T09:08:32.248Z,17.98
2022-08-31T09:10:41.898Z,13.35
2022-08-31T09:12:51.676Z,11.75
2022-08-31T09:15:15.420Z,11.52
2022-08-31T09:17:34.369Z,12.52
2022-08-31T09:19:50.957Z,8.35
2022-08-31T09:21:57.215Z,8.30
2022-08-31T09:24:04.016Z,12.07
2022-08-31T09:26:08.544Z,11.93
2022-08-31T09:28:16.362Z,10.15
2022-08-31T09:30:52.149Z,10.55
2022-08-31T09:32:57.971Z,10.85
2022-08-31T09:35:03.616Z,12.43
2022-08-31T09:37:17.170Z,14.77
2022-08-31T09:39:22.740Z,10.77
2022-08-31T09:41:35.492Z,13.30
2022-08-31T09:43:38.679Z,11.07
2022-08-31T09:45:54.798Z,11.10
2022-08-31T09:48:01.262Z,11.02
2022-08-31T09:50:04.400Z,9.88
2022-08-31T09:52:46.743Z,9.90
2022-08-31T09:57:15.232Z,12.70
2022-08-31T09:59:30.805Z,8.55
2022-08-31T10:01:44.080Z,8.55
2022-08-31T10:03:47.927Z,15.57
2022-08-31T10:05:54.577Z,11.68
2022-08-31T10:08:04.920Z,11.32
2022-08-31T10:10:16.026Z,10.55
2022-08-31T10:12:42.228Z,12.88
2022-08-31T10:14:52.030Z,11.18
2022-08-31T10:17:02.749Z,9.65
2022-08-31T10:19:09.681Z,11.30
2022-08-31T10:21:21.204Z,11.45
2022-08-31T10:23:35.715Z,11.10
2022-08-31T10:25:46.796Z,11.13
2022-08-31T10:27:53.081Z,13.00
2022-08-31T10:30:00.602Z,10.95
2022-08-31T10:32:21.152Z,16.92
2022-08-31T10:34:43.868Z,10.38
2022-08-31T10:36:50.107Z,9.27
2022-08-31T10:38:57.752Z,11.95
2022-08-31T10:41:15.852Z,10.80
2022-08-31T10:43:21.758Z,15.02
2022-08-31T10:45:25.299Z,11.82
2022-08-31T10:47:41.532Z,10.65
2022-08-31T10:49:44.111Z,14.25
2022-08-31T10:51:55.934Z,11.45
2022-08-31T10:54:13.241Z,10.05
2022-08-31T10:56:24.061Z,10.88
2022-08-31T10:58:37.002Z,11.23
2022-08-31T11:00:51.930Z,10.98
2022-08-31T11:03:05.887Z,17.42
2022-08-31T11:05:27.035Z,13.20
2022-08-31T11:07:42.124Z,17.52
2022-08-31T11:09:56.322Z,11.57
2022-08-31T11:12:06.989Z,12.75
2022-08-31T11:14:45.176Z,12.52
2022-08-31T11:17:04.499Z,14.48
2022-08-31T11:19:27.256Z,15.57
2022-08-31T11:21:46.654Z,10.10
2022-08-31T11:24:02.931Z,12.32
2022-08-31T11:26:34.829Z,11.43
2022-08-31T11:30:51.036Z,15.82
2022-08-31T11:32:57.591Z,13.52
2022-08-31T11:35:03.641Z,12.15
2022-08-31T11:37:07.401Z,15.05
2022-08-31T11:39:36.912Z,14.63
2022-08-31T11:41:47.501Z,12.98
2022-08-31T11:43:52.232Z,11.55
2022-08-31T11:45:56.344Z,12.15
2022-08-31T11:47:59.434Z,11.63
2022-08-31T11:50:05.454Z,10.32
2022-08-31T11:52:29.569Z,16.83
2022-08-31T11:55:06.677Z,15.05
2022-08-31T11:57:15.797Z,15.77
2022-08-31T11:59:26.542Z,13.93
2022-08-31T12:01:36.592Z,14.73
2022-08-31T12:04:03.369Z,12.85
2022-08-31T12:06:09.068Z,16.30
2022-08-31T12:08:15.189Z,14.43
2022-08-31T12:10:35.274Z,19.63
2022-08-31T12:13:07.339Z,12.68
2022-08-31T12:17:24.523Z,12.50
2022-08-31T12:19:59.109Z,12.32
2022-08-31T12:22:32.217Z,15.98
2022-08-31T12:24:45.667Z,19.58
2022-08-31T12:27:03.266Z,14.70
2022-08-31T12:29:22.380Z,15.95
2022-08-31T12:31:25.385Z,14.55
2022-08-31T12:33:30.663Z,18.67
2022-08-31T12:35:34.235Z,16.60
2022-08-31T12:37:39.645Z,16.92
2022-08-31T12:39:43.539Z,17.88
2022-08-31T12:41:50.863Z,15.00
2022-08-31T12:43:53.522Z,14.98
2022-08-31T12:46:21.092Z,15.82
2022-08-31T12:48:39.342Z,18.65
2022-08-31T12:50:48.331Z,17.70
2022-08-31T12:53:15.306Z,16.27
2022-08-31T12:55:38.651Z,15.00
2022-08-31T12:57:51.499Z,12.40
2022-08-31T13:00:04.221Z,15.65
2022-08-31T13:02:12.215Z,15.45
2022-08-31T13:04:16.625Z,14.48
2022-08-31T13:06:25.508Z,13.98
2022-08-31T13:08:28.433Z,17.52
2022-08-31T13:10:34.645Z,20.90
2022-08-31T13:12:38.177Z,15.70
2022-08-31T13:14:43.477Z,14.00
2022-08-31T13:16:49.350Z,18.38
2022-08-31T13:19:02.894Z,16.25
2022-08-31T13:21:06.695Z,14.85
2022-08-31T13:23:11.359Z,15.82
2022-08-31T13:25:19.293Z,14.40
2022-08-31T13:27:23.958Z,15.05
2022-08-31T13:29:26.589Z,17.98
2022-08-31T13:31:31.572Z,21.17
2022-08-31T13:33:37.171Z,17.00
2022-08-31T13:35:49.686Z,18.00
2022-08-31T13:38:04.881Z,22.63
2022-08-31T13:40:11.950Z,20.17
2022-08-31T13:42:35.442Z,18.60
2022-08-31T13:44:46.834Z,16.13
2022-08-31T13:47:01.177Z,19.38
2022-08-31T13:49:08.139Z,17.75
2022-08-31T13:51:19.573Z,17.88
2022-08-31T13:53:39.369Z,14.98
2022-08-31T13:55:44.004Z,17.48
2022-08-31T13:57:59.692Z,16.95
2022-08-31T14:00:29.571Z,14.63
2022-08-31T14:02:37.189Z,17.58
2022-08-31T14:05:00.460Z,21.13
2022-08-31T14:07:04.660Z,19.65
2022-08-31T14:09:17.371Z,18.13
2022-08-31T14:11:21.780Z,20.67
2022-08-31T14:13:27.032Z,21.15
2022-08-31T14:15:36.563Z,16.30
2022-08-31T14:17:42.817Z,17.58
2022-08-31T14:19:46.078Z,16.38
2022-08-31T14:21:50.148Z,18.45
2022-08-31T14:23:58.972Z,19.05
2022-08-31T14:26:04.058Z,24.08
2022-08-31T14:28:09.058Z,22.27
2022-08-31T14:30:12.255Z,23.15
2022-08-31T14:32:14.899Z,20.80
2022-08-31T14:34:23.081Z,22.67
2022-08-31T14:36:27.867Z,17.77
2022-08-31T14:38:32.483Z,19.33
2022-08-31T14:40:37.388Z,18.52
2022-08-31T14:42:40.531Z,16.70
2022-08-31T14:44:45.971Z,25.73
2022-08-31T14:46:48.552Z,16.50
2022-08-31T14:48:51.241Z,16.40
2022-08-31T14:50:53.819Z,19.42
2022-08-31T14:52:57.484Z,16.63
2022-08-31T14:55:00.963Z,17.23
2022-08-31T14:57:09.592Z,17.98
2022-08-31T14:59:13.909Z,17.05
2022-08-31T15:01:17.448Z,16.08
2022-08-31T15:03:24.358Z,15.45
2022-08-31T15:05:26.980Z,13.63
2022-08-31T15:07:32.052Z,15.27
2022-08-31T15:09:36.001Z,14.50
2022-08-31T15:11:39.853Z,18.58
2022-08-31T15:13:43.883Z,14.20
2022-08-31T15:15:49.373Z,15.10
2022-08-31T15:17:52.815Z,19.40
2022-08-31T15:19:55.826Z,17.80
2022-08-31T15:22:02.980Z,17.83
2022-08-31T15:24:06.083Z,14.73
2022-08-31T15:26:12.388Z,17.85
2022-08-31T15:28:15.336Z,14.80
2022-08-31T15:30:20.315Z,16.10
2022-08-31T15:32:22.994Z,16.00
2022-08-31T15:34:29.480Z,15.75
2022-08-31T15:36:32.718Z,14.63
2022-08-31T15:38:36.737Z,16.75
2022-08-31T15:40:39.836Z,16.70
2022-08-31T15:42:43.612Z,15.30
2022-08-31T15:44:56.805Z,15.88
2022-08-31T15:47:18.340Z,13.80
2022-08-31T15:49:20.932Z,17.00
2022-08-31T15:51:27.846Z,17.00
2022-08-31T15:53:32.070Z,14.23
2022-08-31T15:55:35.244Z,16.70
2022-08-31T15:57:39.047Z,14.98
2022-08-31T15:59:43.805Z,14.30
2022-08-31T16:01:46.596Z,13.95
2022-08-31T16:03:53.577Z,11.48
2022-08-31T16:05:56.336Z,15.90
2022-08-31T16:07:59.076Z,17.55
2022-08-31T16:10:01.819Z,15.75
2022-08-31T16:12:05.423Z,15.48
2022-08-31T16:14:11.256Z,18.33
2022-08-31T16:16:15.222Z,10.70
2022-08-31T16:18:18.562Z,11.88
2022-08-31T16:20:23.400Z,14.75
2022-08-31T16:22:30.466Z,13.98
2022-08-31T16:24:37.490Z,12.40
2022-08-31T16:26:43.315Z,12.60
2022-08-31T16:28:46.467Z,10.07
2022-08-31T16:30:49.431Z,8.90
2022-08-31T16:32:54.118Z,7.20
2022-08-31T16:34:57.074Z,8.65
2022-08-31T16:37:07.181Z,6.85
2022-08-31T16:39:10.193Z,5.63
2022-08-31T16:41:13.737Z,4.80
2022-08-31T16:43:16.448Z,5.53
2022-08-31T16:45:19.166Z,7.10
2022-08-31T16:47:21.948Z,7.40
2022-08-31T16:49:36.705Z,6.25
2022-08-31T16:51:39.680Z,6.20
2022-08-31T16:53:47.591Z,4.40
2022-08-31T16:55:50.243Z,13.63
2022-08-31T16:57:52.976Z,4.45
2022-08-31T16:59:56.954Z,5.30
2022-08-31T17:01:59.675Z,6.88
2022-08-31T17:04:04.767Z,11.65
2022-08-31T17:06:07.835Z,9.27
2022-08-31T17:08:14.790Z,11.40
2022-08-31T17:10:19.126Z,6.38
2022-08-31T17:12:26.180Z,6.15
2022-08-31T17:14:33.926Z,7.05
2022-08-31T17:16:38.722Z,7.65
2022-08-31T17:18:44.291Z,7.05
2022-08-31T17:20:46.977Z,9.52
2022-08-31T17:22:50.142Z,4.47
2022-08-31T17:24:57.859Z,9.23
2022-08-31T17:27:04.663Z,6.85
2022-08-31T17:29:08.084Z,7.22
2022-08-31T17:31:11.293Z,15.23
2022-08-31T17:33:14.207Z,7.72
2022-08-31T17:35:18.529Z,8.13
2022-08-31T17:37:25.192Z,12.13
2022-08-31T17:39:29.029Z,8.90
2022-08-31T17:41:31.700Z,10.52
2022-08-31T17:43:38.281Z,8.38
2022-08-31T17:45:40.990Z,8.52
2022-08-31T17:47:43.679Z,10.50
2022-08-31T17:49:46.986Z,10.50
2022-08-31T17:51:51.191Z,6.68
2022-08-31T17:53:55.367Z,5.82
2022-08-31T17:55:58.093Z,7.35
2022-08-31T17:58:00.764Z,9.98
2022-08-31T18:00:06.773Z,8.15
2022-08-31T18:02:12.275Z,6.65
2022-08-31T18:04:15.813Z,9.23
2022-08-31T18:06:19.223Z,10.50
2022-08-31T18:08:24.501Z,11.40
2022-08-31T18:10:27.714Z,8.07
2022-08-31T18:12:30.769Z,7.30
2022-08-31T18:14:34.679Z,13.35
2022-08-31T18:16:39.501Z,14.93
2022-08-31T18:18:46.114Z,7.75
2022-08-31T18:20:48.823Z,10.55
2022-08-31T18:22:52.685Z,7.35
2022-08-31T18:24:55.885Z,9.05
2022-08-31T18:26:59.221Z,14.10
2022-08-31T18:29:02.077Z,11.85
2022-08-31T18:31:07.636Z,8.75
2022-08-31T18:33:14.924Z,9.98
2022-08-31T18:35:18.016Z,8.95
2022-08-31T18:37:22.242Z,13.98
2022-08-31T18:39:50.039Z,21.90
2022-08-31T18:42:07.548Z,12.25
2022-08-31T18:44:28.599Z,7.85
2022-08-31T18:46:31.311Z,9.93
2022-08-31T18:48:35.553Z,9.80
2022-08-31T18:50:38.607Z,7.32
2022-08-31T18:52:44.135Z,16.05
2022-08-31T18:54:53.116Z,12.55
2022-08-31T18:56:55.942Z,11.80
2022-08-31T18:58:59.578Z,10.10
2022-08-31T19:01:02.610Z,11.18
2022-08-31T19:03:05.943Z,10.57
2022-08-31T19:05:12.728Z,11.98
2022-08-31T19:07:15.929Z,13.38
2022-08-31T19:09:18.939Z,15.88
2022-08-31T19:11:21.944Z,9.98
2022-08-31T19:13:26.257Z,10.63
2022-08-31T19:15:35.398Z,11.73
2022-08-31T19:17:40.280Z,11.18
2022-08-31T19:19:43.008Z,12.75
2022-08-31T19:21:47.115Z,13.30
2022-08-31T19:23:51.463Z,16.52
2022-08-31T19:25:54.806Z,14.02
2022-08-31T19:27:57.749Z,13.27
2022-08-31T19:30:00.524Z,13.27
2022-08-31T19:32:05.751Z,12.02
2022-08-31T19:34:08.897Z,11.68
2022-08-31T19:36:12.653Z,14.65
2022-08-31T19:38:16.672Z,15.65
2022-08-31T19:40:35.530Z,12.13
2022-08-31T19:42:40.593Z,14.25
2022-08-31T19:47:25.519Z,15.32
2022-08-31T19:49:31.097Z,11.90
2022-08-31T19:51:36.029Z,13.10
2022-08-31T19:53:42.623Z,14.30
2022-08-31T19:55:50.428Z,12.38
2022-08-31T19:57:54.180Z,13.82
2022-08-31T19:59:57.028Z,12.50
2022-08-31T20:02:02.856Z,9.25
2022-08-31T20:04:15.868Z,12.27
2022-08-31T20:06:22.349Z,13.48
2022-08-31T20:08:25.041Z,16.65
2022-08-31T20:10:30.087Z,11.77
2022-08-31T20:12:33.220Z,10.55
2022-08-31T20:14:36.331Z,12.85
2022-08-31T20:16:41.766Z,13.65
2022-08-31T20:18:47.053Z,13.27
2022-08-31T20:20:52.944Z,9.98
2022-08-31T20:22:55.724Z,13.25
2022-08-31T20:25:01.010Z,14.98
2022-08-31T20:27:10.080Z,16.33
2022-08-31T20:29:13.697Z,11.82
2022-08-31T20:31:17.072Z,11.63
2022-08-31T20:33:20.451Z,12.35
2022-08-31T20:35:23.231Z,21.15
2022-08-31T20:37:27.571Z,10.25
2022-08-31T20:39:32.985Z,9.88
2022-08-31T20:41:38.694Z,14.73
2022-08-31T20:43:44.718Z,12.75
2022-08-31T20:45:50.332Z,14.38
2022-08-31T20:48:10.711Z,18.10
2022-08-31T20:50:14.192Z,14.35
2022-08-31T20:52:17.856Z,13.00
2022-08-31T20:54:20.461Z,13.30
2022-08-31T20:56:26.195Z,14.35
2022-08-31T20:58:32.877Z,9.82
2022-08-31T21:00:43.496Z,12.52
2022-08-31T21:02:47.010Z,15.32
2022-08-31T21:04:50.132Z,14.85
2022-08-31T21:06:53.257Z,17.40
2022-08-31T21:08:56.770Z,16.08
2022-08-31T21:10:59.464Z,16.40
2022-08-31T21:13:02.454Z,11.05
2022-08-31T21:15:12.302Z,15.38
2022-08-31T21:17:16.385Z,19.63
2022-08-31T21:19:22.495Z,15.25
2022-08-31T21:21:26.356Z,16.13
2022-08-31T21:23:30.820Z,19.63
2022-08-31T21:25:34.745Z,11.75
2022-08-31T21:27:39.736Z,12.00
2022-08-31T21:29:46.793Z,19.35
2022-08-31T21:31:56.862Z,14.57
2022-08-31T21:34:06.804Z,15.90
2022-08-31T21:36:13.279Z,14.05
2022-08-31T21:38:15.877Z,13.10
2022-08-31T21:40:18.859Z,20.25
2022-08-31T21:42:21.573Z,17.67
2022-08-31T21:44:24.451Z,18.77
2022-08-31T21:46:29.681Z,13.55
2022-08-31T21:48:34.175Z,11.50
2022-08-31T21:50:38.178Z,14.90
2022-08-31T21:52:40.739Z,14.13
2022-08-31T21:54:44.755Z,13.43
2022-08-31T21:56:51.773Z,20.20
2022-08-31T21:58:54.409Z,14.57
2022-08-31T22:00:57.406Z,18.27
2022-08-31T22:03:00.084Z,17.40
2022-08-31T22:05:08.554Z,14.32
2022-08-31T22:07:14.043Z,16.88
2022-08-31T22:09:19.089Z,16.23
2022-08-31T22:11:24.124Z,17.27
2022-08-31T22:13:27.299Z,14.38
2022-08-31T22:15:35.958Z,17.88
2022-08-31T22:18:01.988Z,14.13
2022-08-31T22:20:02.550Z,13.93
2022-08-31T22:22:08.012Z,12.73
2022-08-31T22:24:26.568Z,15.13
2022-08-31T22:26:33.444Z,13.13
2022-08-31T22:28:36.382Z,12.50
2022-08-31T22:30:39.333Z,16.17
2022-08-31T22:32:41.935Z,14.88
2022-08-31T22:34:46.033Z,13.88
2022-08-31T22:36:50.677Z,16.45
2022-08-31T22:38:53.305Z,19.67
2022-08-31T22:40:58.001Z,18.40
2022-08-31T22:43:00.559Z,14.15
2022-08-31T22:45:09.291Z,16.13
2022-08-31T22:47:11.916Z,13.68
2022-08-31T22:49:15.829Z,11.98
2022-08-31T22:51:19.366Z,17.48
2022-08-31T22:53:22.046Z,17.40
2022-08-31T22:55:24.738Z,13.85
2022-08-31T22:57:28.687Z,15.55
2022-08-31T22:59:31.269Z,15.25
2022-08-31T23:01:36.399Z,11.95
2022-08-31T23:03:39.043Z,19.10
2022-08-31T23:05:44.176Z,11.68
2022-08-31T23:07:47.583Z,14.90
2022-08-31T23:09:50.458Z,14.82
2022-08-31T23:11:53.062Z,18.98
2022-08-31T23:14:04.207Z,21.08
2022-08-31T23:16:11.076Z,15.18
2022-08-31T23:18:16.510Z,11.57
2022-08-31T23:20:23.821Z,17.05
2022-08-31T23:22:27.673Z,15.07
2022-08-31T23:24:33.948Z,17.52
2022-08-31T23:26:37.766Z,15.45
2022-08-31T23:28:41.020Z,13.32
2022-08-31T23:30:45.363Z,11.43
2022-08-31T23:32:48.466Z,12.02
2022-08-31T23:34:52.362Z,15.18
2022-08-31T23:36:55.569Z,15.00
2022-08-31T23:39:03.821Z,17.50
2022-08-31T23:41:06.699Z,16.67
2022-08-31T23:43:18.116Z,19.15
2022-08-31T23:45:21.023Z,15.13
2022-08-31T23:47:29.659Z,13.00
2022-08-31T23:49:32.231Z,17.70
2022-08-31T23:51:38.263Z,10.43
2022-08-31T23:53:40.824Z,14.13
2022-08-31T23:55:45.019Z,19.52
2022-08-31T23:57:48.446Z,14.50
2022-08-31T23:59:52.939Z,13.65
